createdAt,value
2022-12-19T00:00:18.142Z,-4.51
2022-12-19T00:01:23.289Z,-4.24
2022-12-19T00:01:57.374Z,-4.31
2022-12-19T00:02:39.365Z,-4.21
2022-12-19T00:03:20.357Z,-4.27
2022-12-19T00:04:07.830Z,-4.29
2022-12-19T00:04:48.283Z,-4.33
2022-12-19T00:05:29.199Z,-4.27
2022-12-19T00:06:11.235Z,-4.35
2022-12-19T00:06:51.173Z,-4.47
2022-12-19T00:07:31.253Z,-4.43
2022-12-19T00:08:17.029Z,-4.29
2022-12-19T00:09:00.386Z,-4.39
2022-12-19T00:09:40.188Z,-4.34
2022-12-19T00:10:20.209Z,-4.22
2022-12-19T00:11:07.151Z,-4.30
2022-12-19T00:11:48.732Z,-4.28
2022-12-19T00:12:29.158Z,-4.25
2022-12-19T00:13:09.394Z,-4.39
2022-12-19T00:13:51.168Z,-4.27
2022-12-19T00:14:31.221Z,-4.27
2022-12-19T00:15:12.150Z,-4.28
2022-12-19T00:15:52.269Z,-4.37
2022-12-19T00:16:35.209Z,-4.25
2022-12-19T00:17:15.213Z,-4.26
2022-12-19T00:17:55.148Z,-4.28
2022-12-19T00:18:35.176Z,-4.39
2022-12-19T00:19:17.168Z,-4.46
2022-12-19T00:19:57.190Z,-4.55
2022-12-19T00:20:37.128Z,-4.55
2022-12-19T00:21:20.217Z,-4.47
2022-12-19T00:22:01.160Z,-4.46
2022-12-19T00:22:41.199Z,-4.46
2022-12-19T00:23:21.140Z,-4.49
2022-12-19T00:24:02.861Z,-4.47
2022-12-19T00:24:43.162Z,-4.53
2022-12-19T00:25:23.199Z,-4.58
2022-12-19T00:26:18.320Z,-4.63
2022-12-19T00:26:59.182Z,-4.61
2022-12-19T00:27:42.165Z,-4.54
2022-12-19T00:28:22.210Z,-4.50
2022-12-19T00:29:07.664Z,-4.75
2022-12-19T00:29:58.156Z,-4.68
2022-12-19T00:30:32.395Z,-4.52
2022-12-19T00:31:21.182Z,-4.55
2022-12-19T00:31:54.843Z,-4.48
2022-12-19T00:32:42.110Z,-4.52
2022-12-19T00:33:15.798Z,-4.65
2022-12-19T00:34:03.156Z,-4.65
2022-12-19T00:34:36.828Z,-4.58
2022-12-19T00:35:17.167Z,-4.50
2022-12-19T00:35:51.217Z,-4.59
2022-12-19T00:36:27.987Z,-4.52
2022-12-19T00:37:09.120Z,-4.45
2022-12-19T00:37:49.649Z,-4.48
2022-12-19T00:38:23.842Z,-4.47
2022-12-19T00:39:08.544Z,-4.48
2022-12-19T00:39:42.200Z,-4.44
2022-12-19T00:40:15.812Z,-4.33
2022-12-19T00:40:56.144Z,-4.31
2022-12-19T00:41:34.185Z,-4.43
2022-12-19T00:42:07.824Z,-4.42
2022-12-19T00:42:53.333Z,-4.48
2022-12-19T00:43:27.156Z,-4.54
2022-12-19T00:44:07.215Z,-4.45
2022-12-19T00:44:47.124Z,-4.44
2022-12-19T00:45:21.544Z,-4.40
2022-12-19T00:45:55.895Z,-4.37
2022-12-19T00:46:38.129Z,-4.38
2022-12-19T00:47:12.160Z,-4.39
2022-12-19T00:47:45.812Z,-4.33
2022-12-19T00:48:26.119Z,-4.35
2022-12-19T00:49:00.181Z,-4.33
2022-12-19T00:49:33.791Z,-4.34
2022-12-19T00:50:15.107Z,-4.29
2022-12-19T00:50:49.131Z,-4.22
2022-12-19T00:51:31.389Z,-4.24
2022-12-19T00:52:12.140Z,-4.21
2022-12-19T00:52:46.152Z,-4.27
2022-12-19T00:53:19.801Z,-4.21
2022-12-19T00:54:02.290Z,-4.26
2022-12-19T00:54:39.252Z,-4.28
2022-12-19T00:55:13.810Z,-4.27
2022-12-19T00:55:59.193Z,-4.25
2022-12-19T00:56:39.163Z,-4.27
2022-12-19T00:57:26.119Z,-4.20
2022-12-19T00:58:00.632Z,-4.16
2022-12-19T00:58:48.083Z,-4.24
2022-12-19T00:59:26.723Z,-4.27
2022-12-19T01:00:15.123Z,-4.22
2022-12-19T01:00:49.177Z,-4.26
2022-12-19T01:01:43.293Z,-4.15
2022-12-19T01:02:17.268Z,-4.08
2022-12-19T01:02:57.235Z,-4.19
2022-12-19T01:03:37.150Z,-4.13
2022-12-19T01:04:29.407Z,-4.04
2022-12-19T01:05:11.123Z,-4.11
2022-12-19T01:05:51.081Z,-4.12
2022-12-19T01:06:33.243Z,-4.07
2022-12-19T01:07:15.115Z,-4.15
2022-12-19T01:07:55.383Z,-3.99
2022-12-19T01:08:35.164Z,-4.06
2022-12-19T01:09:17.166Z,-3.99
2022-12-19T01:09:57.098Z,-3.99
2022-12-19T01:10:37.238Z,-3.92
2022-12-19T01:11:18.084Z,-3.92
2022-12-19T01:12:16.695Z,-3.99
2022-12-19T01:12:57.371Z,-4.02
2022-12-19T01:13:46.125Z,-3.93
2022-12-19T01:14:40.104Z,-3.96
2022-12-19T01:15:35.076Z,-3.96
2022-12-19T01:16:29.145Z,-3.90
2022-12-19T01:17:23.109Z,-3.85
2022-12-19T01:18:17.086Z,-3.87
2022-12-19T01:19:06.109Z,-3.88
2022-12-19T01:19:44.351Z,-3.91
2022-12-19T01:20:32.090Z,-3.84
2022-12-19T01:21:13.117Z,-3.88
2022-12-19T01:22:00.081Z,-3.89
2022-12-19T01:22:34.124Z,-3.89
2022-12-19T01:23:23.064Z,-3.90
2022-12-19T01:23:57.145Z,-3.86
2022-12-19T01:24:37.068Z,-3.98
2022-12-19T01:25:18.669Z,-3.99
2022-12-19T01:26:01.089Z,-3.89
2022-12-19T01:26:41.160Z,-3.94
2022-12-19T01:27:21.080Z,-3.91
2022-12-19T01:28:02.147Z,-3.87
2022-12-19T01:28:42.075Z,-3.85
2022-12-19T01:29:22.125Z,-3.84
2022-12-19T01:30:02.097Z,-3.86
2022-12-19T01:30:42.112Z,-3.90
2022-12-19T01:31:23.123Z,-3.92
2022-12-19T01:32:03.208Z,-3.88
2022-12-19T01:32:43.069Z,-3.80
2022-12-19T01:33:25.149Z,-3.78
2022-12-19T01:34:07.068Z,-3.98
2022-12-19T01:34:47.145Z,-3.83
2022-12-19T01:35:28.100Z,-3.87
2022-12-19T01:36:08.175Z,-3.88
2022-12-19T01:36:48.050Z,-3.84
2022-12-19T01:37:29.095Z,-3.93
2022-12-19T01:38:09.059Z,-3.97
2022-12-19T01:38:49.317Z,-3.83
2022-12-19T01:39:30.937Z,-3.87
2022-12-19T01:40:16.116Z,-3.82
2022-12-19T01:41:02.087Z,-4.01
2022-12-19T01:41:44.095Z,-3.90
2022-12-19T01:42:28.072Z,-3.88
2022-12-19T01:43:09.082Z,-3.78
2022-12-19T01:44:13.046Z,-3.82
2022-12-19T01:45:35.499Z,-3.68
2022-12-19T01:46:19.103Z,-3.68
2022-12-19T01:47:04.111Z,-3.65
2022-12-19T01:47:58.110Z,-3.62
2022-12-19T01:48:43.095Z,-3.59
2022-12-19T01:49:33.058Z,-3.61
2022-12-19T01:50:18.107Z,-3.66
2022-12-19T01:51:02.706Z,-3.63
2022-12-19T01:51:54.051Z,-3.76
2022-12-19T01:52:28.149Z,-3.75
2022-12-19T01:53:17.060Z,-3.76
2022-12-19T01:54:02.185Z,-3.71
2022-12-19T01:54:49.039Z,-3.73
2022-12-19T01:55:23.092Z,-3.71
2022-12-19T01:56:12.002Z,-3.63
2022-12-19T01:57:01.036Z,-3.63
2022-12-19T01:57:55.025Z,-3.71
2022-12-19T01:58:55.397Z,-3.63
2022-12-19T02:00:06.014Z,-3.71
2022-12-19T02:01:00.052Z,-3.59
2022-12-19T02:01:56.087Z,-3.63
2022-12-19T02:02:42.063Z,-3.56
2022-12-19T02:03:36.073Z,-3.57
2022-12-19T02:04:19.007Z,-3.55
2022-12-19T02:05:01.439Z,-3.53
2022-12-19T02:05:42.019Z,-3.53
2022-12-19T02:06:22.038Z,-3.57
2022-12-19T02:07:08.143Z,-3.60
2022-12-19T02:07:57.025Z,-3.57
2022-12-19T02:08:32.040Z,-3.65
2022-12-19T02:09:20.983Z,-3.58
2022-12-19T02:09:58.223Z,-3.66
2022-12-19T02:10:44.982Z,-3.62
2022-12-19T02:11:19.495Z,-3.65
2022-12-19T02:12:07.000Z,-3.60
2022-12-19T02:12:44.211Z,-3.54
2022-12-19T02:13:25.038Z,-3.52
2022-12-19T02:14:05.038Z,-3.53
2022-12-19T02:14:45.999Z,-3.49
2022-12-19T02:15:27.009Z,-3.41
2022-12-19T02:16:51.021Z,-3.39
2022-12-19T02:17:54.153Z,-3.44
2022-12-19T02:19:05.052Z,-3.36
2022-12-19T02:20:30.404Z,-3.45
2022-12-19T02:21:20.970Z,-3.36
2022-12-19T02:22:24.028Z,-3.50
2022-12-19T02:23:35.966Z,-3.32
2022-12-19T02:24:52.004Z,-3.38
2022-12-19T02:26:20.998Z,-3.34
2022-12-19T02:28:05.048Z,-3.39
2022-12-19T02:29:20.971Z,-3.40
2022-12-19T02:30:46.978Z,-3.33
2022-12-19T02:31:49.008Z,-3.40
2022-12-19T02:32:55.970Z,-3.25
2022-12-19T02:34:28.968Z,-3.27
2022-12-19T02:35:50.986Z,-3.28
2022-12-19T02:36:54.965Z,-3.45
2022-12-19T02:38:02.989Z,-3.24
2022-12-19T02:39:20.979Z,-3.20
2022-12-19T02:40:30.965Z,-3.12
2022-12-19T02:41:20.985Z,-3.18
2022-12-19T02:42:05.088Z,-3.25
2022-12-19T02:42:50.984Z,-3.20
2022-12-19T02:43:33.012Z,-3.20
2022-12-19T02:44:13.998Z,-3.18
2022-12-19T02:44:57.038Z,-3.21
2022-12-19T02:45:42.987Z,-3.19
2022-12-19T02:46:31.015Z,-3.28
2022-12-19T02:47:24.970Z,-3.19
2022-12-19T02:48:19.408Z,-3.20
2022-12-19T02:49:19.181Z,-3.27
2022-12-19T02:50:19.947Z,-3.25
2022-12-19T02:51:13.993Z,-3.24
2022-12-19T02:51:55.008Z,-3.30
2022-12-19T02:52:35.065Z,-3.24
2022-12-19T02:53:22.409Z,-3.26
2022-12-19T02:54:04.027Z,-3.19
2022-12-19T02:54:45.320Z,-3.30
2022-12-19T02:55:31.036Z,-3.29
2022-12-19T02:56:36.944Z,-3.43
2022-12-19T02:57:37.010Z,-3.40
2022-12-19T02:59:05.034Z,-3.33
2022-12-19T03:00:14.953Z,-3.49
2022-12-19T03:01:32.096Z,-3.44
2022-12-19T03:03:01.096Z,-3.36
2022-12-19T03:04:10.014Z,-3.37
2022-12-19T03:05:29.957Z,-3.33
2022-12-19T03:06:41.013Z,-3.59
2022-12-19T03:07:51.953Z,-3.48
2022-12-19T03:08:48.948Z,-3.33
2022-12-19T03:09:58.930Z,-3.31
2022-12-19T03:11:03.955Z,-3.36
2022-12-19T03:11:53.016Z,-3.45
2022-12-19T03:12:46.946Z,-3.41
2022-12-19T03:13:36.047Z,-3.38
2022-12-19T03:14:21.014Z,-3.30
2022-12-19T03:15:01.979Z,-3.25
2022-12-19T03:15:42.934Z,-3.24
2022-12-19T03:16:23.015Z,-3.18
2022-12-19T03:17:02.980Z,-3.17
2022-12-19T03:17:46.053Z,-3.17
2022-12-19T03:18:26.938Z,-3.16
2022-12-19T03:19:07.978Z,-3.08
2022-12-19T03:19:47.963Z,-3.09
2022-12-19T03:20:54.987Z,-3.12
2022-12-19T03:21:41.936Z,-3.35
2022-12-19T03:22:22.090Z,-3.21
2022-12-19T03:23:01.931Z,-3.15
2022-12-19T03:23:41.994Z,-3.18
2022-12-19T03:24:23.924Z,-3.14
2022-12-19T03:25:04.977Z,-3.20
2022-12-19T03:25:38.998Z,-3.21
2022-12-19T03:26:30.935Z,-3.15
2022-12-19T03:27:06.990Z,-3.18
2022-12-19T03:27:55.931Z,-3.09
2022-12-19T03:28:43.461Z,-3.05
2022-12-19T03:29:35.916Z,-3.06
2022-12-19T03:30:25.966Z,-3.04
2022-12-19T03:31:21.000Z,-3.04
2022-12-19T03:32:17.925Z,-3.02
2022-12-19T03:33:11.927Z,-3.10
2022-12-19T03:34:23.938Z,-3.16
2022-12-19T03:35:31.949Z,-3.08
2022-12-19T03:36:31.936Z,-3.06
2022-12-19T03:37:31.945Z,-3.10
2022-12-19T03:38:26.908Z,-3.03
2022-12-19T03:39:23.932Z,-3.02
2022-12-19T03:40:27.929Z,-2.94
2022-12-19T03:41:09.952Z,-3.07
2022-12-19T03:42:09.540Z,-2.96
2022-12-19T03:43:12.284Z,-2.88
2022-12-19T03:43:53.008Z,-2.84
2022-12-19T03:44:36.909Z,-2.84
2022-12-19T03:45:18.985Z,-2.85
2022-12-19T03:46:23.007Z,-2.88
2022-12-19T03:47:16.122Z,-2.74
2022-12-19T03:48:03.905Z,-2.80
2022-12-19T03:48:58.969Z,-2.74
2022-12-19T03:49:39.927Z,-2.72
2022-12-19T03:50:19.971Z,-2.78
2022-12-19T03:51:19.944Z,-2.63
2022-12-19T03:52:30.930Z,-2.67
2022-12-19T03:53:28.943Z,-2.61
2022-12-19T03:54:31.894Z,-2.78
2022-12-19T03:55:53.957Z,-2.75
2022-12-19T03:56:57.917Z,-2.75
2022-12-19T03:57:48.933Z,-2.65
2022-12-19T03:58:48.910Z,-2.63
2022-12-19T03:59:47.914Z,-2.69
2022-12-19T04:00:43.894Z,-2.71
2022-12-19T04:01:39.927Z,-2.78
2022-12-19T04:02:35.175Z,-2.65
2022-12-19T04:03:15.973Z,-2.64
2022-12-19T04:03:56.010Z,-2.61
2022-12-19T04:04:37.903Z,-2.59
2022-12-19T04:05:21.943Z,-2.56
2022-12-19T04:06:02.928Z,-2.58
2022-12-19T04:06:44.958Z,-2.56
2022-12-19T04:07:24.882Z,-2.59
2022-12-19T04:08:11.924Z,-2.59
2022-12-19T04:08:52.938Z,-2.58
2022-12-19T04:09:32.930Z,-2.61
2022-12-19T04:10:17.901Z,-2.59
2022-12-19T04:11:03.946Z,-2.68
2022-12-19T04:11:50.127Z,-2.89
2022-12-19T04:12:36.940Z,-2.93
2022-12-19T04:13:22.877Z,-2.82
2022-12-19T04:14:16.892Z,-2.92
2022-12-19T04:15:10.894Z,-2.86
2022-12-19T04:16:24.895Z,-3.08
2022-12-19T04:17:54.908Z,-3.06
2022-12-19T04:18:49.900Z,-3.09
2022-12-19T04:19:45.938Z,-3.11
2022-12-19T04:20:22.924Z,-3.10
2022-12-19T04:21:21.852Z,-3.09
2022-12-19T04:22:02.981Z,-3.16
2022-12-19T04:23:14.876Z,-3.15
2022-12-19T04:23:57.930Z,-3.14
2022-12-19T04:24:46.893Z,-3.13
2022-12-19T04:25:33.055Z,-3.13
2022-12-19T04:26:20.868Z,-3.15
2022-12-19T04:26:55.911Z,-3.20
2022-12-19T04:27:44.860Z,-3.11
2022-12-19T04:28:46.942Z,-3.19
2022-12-19T04:29:35.879Z,-3.30
2022-12-19T04:30:17.921Z,-3.26
2022-12-19T04:31:12.886Z,-3.18
2022-12-19T04:32:06.897Z,-3.20
2022-12-19T04:33:01.856Z,-3.28
2022-12-19T04:33:56.846Z,-3.31
2022-12-19T04:34:50.866Z,-3.19
2022-12-19T04:35:37.896Z,-3.11
2022-12-19T04:36:11.992Z,-3.09
2022-12-19T04:36:58.866Z,-3.04
2022-12-19T04:37:32.906Z,-3.04
2022-12-19T04:38:19.858Z,-3.07
2022-12-19T04:38:53.925Z,-3.07
2022-12-19T04:39:40.845Z,-2.98
2022-12-19T04:40:15.962Z,-3.03
2022-12-19T04:41:02.870Z,-3.08
2022-12-19T04:41:36.960Z,-3.08
2022-12-19T04:42:23.866Z,-3.15
2022-12-19T04:42:57.912Z,-3.09
2022-12-19T04:43:44.853Z,-3.01
2022-12-19T04:44:18.892Z,-2.96
2022-12-19T04:45:05.854Z,-2.87
2022-12-19T04:45:42.005Z,-2.86
2022-12-19T04:46:23.886Z,-2.89
2022-12-19T04:47:17.832Z,-2.79
2022-12-19T04:48:11.855Z,-2.83
2022-12-19T04:49:05.905Z,-2.82
2022-12-19T04:49:59.853Z,-2.71
2022-12-19T04:50:53.834Z,-2.60
2022-12-19T04:51:40.866Z,-2.83
2022-12-19T04:52:14.986Z,-2.65
2022-12-19T04:53:01.825Z,-2.65
2022-12-19T04:53:35.875Z,-2.73
2022-12-19T04:54:22.869Z,-2.83
2022-12-19T04:54:56.883Z,-2.72
2022-12-19T04:55:43.861Z,-2.74
2022-12-19T04:56:18.889Z,-2.68
2022-12-19T04:57:05.871Z,-2.64
2022-12-19T04:57:39.877Z,-2.69
2022-12-19T04:58:26.828Z,-2.76
2022-12-19T04:59:06.853Z,-2.71
2022-12-19T04:59:53.815Z,-2.73
2022-12-19T05:00:27.846Z,-2.80
2022-12-19T05:01:15.893Z,-2.79
2022-12-19T05:01:50.060Z,-2.76
2022-12-19T05:02:31.058Z,-2.64
2022-12-19T05:03:11.920Z,-2.70
2022-12-19T05:03:55.772Z,-2.75
2022-12-19T05:04:37.870Z,-2.72
2022-12-19T05:05:18.811Z,-2.70
2022-12-19T05:05:58.870Z,-2.68
2022-12-19T05:06:38.821Z,-2.82
2022-12-19T05:07:20.937Z,-2.97
2022-12-19T05:08:04.847Z,-2.92
2022-12-19T05:08:47.894Z,-2.81
2022-12-19T05:09:27.836Z,-2.91
2022-12-19T05:10:07.962Z,-2.88
2022-12-19T05:10:47.814Z,-2.91
2022-12-19T05:11:27.863Z,-2.87
2022-12-19T05:12:07.799Z,-2.95
2022-12-19T05:12:47.868Z,-2.87
2022-12-19T05:13:27.823Z,-2.91
2022-12-19T05:14:07.877Z,-2.97
2022-12-19T05:14:48.819Z,-2.99
2022-12-19T05:15:28.859Z,-3.01
2022-12-19T05:16:12.879Z,-2.88
2022-12-19T05:16:57.219Z,-2.88
2022-12-19T05:17:40.798Z,-2.82
2022-12-19T05:18:20.869Z,-2.89
2022-12-19T05:19:01.841Z,-2.82
2022-12-19T05:19:41.837Z,-2.80
2022-12-19T05:20:21.819Z,-2.83
2022-12-19T05:21:01.856Z,-2.82
2022-12-19T05:21:41.811Z,-2.85
2022-12-19T05:22:21.839Z,-2.95
2022-12-19T05:23:04.971Z,-3.08
2022-12-19T05:23:46.938Z,-2.98
2022-12-19T05:24:26.858Z,-2.92
2022-12-19T05:25:06.858Z,-3.00
2022-12-19T05:25:46.783Z,-3.06
2022-12-19T05:26:28.001Z,-3.05
2022-12-19T05:27:07.812Z,-3.01
2022-12-19T05:27:47.834Z,-3.03
2022-12-19T05:28:28.801Z,-2.96
2022-12-19T05:29:08.848Z,-2.99
2022-12-19T05:29:48.837Z,-3.08
2022-12-19T05:30:28.861Z,-2.96
2022-12-19T05:31:17.888Z,-2.97
2022-12-19T05:32:11.891Z,-2.96
2022-12-19T05:33:05.771Z,-2.94
2022-12-19T05:34:00.809Z,-2.98
2022-12-19T05:34:54.809Z,-2.94
2022-12-19T05:35:49.800Z,-2.96
2022-12-19T05:36:43.780Z,-2.97
2022-12-19T05:37:37.795Z,-2.99
2022-12-19T05:38:31.783Z,-2.90
2022-12-19T05:39:25.793Z,-3.04
2022-12-19T05:40:13.810Z,-2.96
2022-12-19T05:40:47.818Z,-2.83
2022-12-19T05:41:34.784Z,-2.73
2022-12-19T05:42:12.326Z,-2.81
2022-12-19T05:42:59.785Z,-2.80
2022-12-19T05:43:33.862Z,-2.81
2022-12-19T05:44:20.791Z,-2.82
2022-12-19T05:44:54.851Z,-2.85
2022-12-19T05:45:34.769Z,-2.80
2022-12-19T05:46:14.829Z,-2.79
2022-12-19T05:46:55.811Z,-2.71
2022-12-19T05:47:37.959Z,-2.74
2022-12-19T05:48:17.785Z,-2.82
2022-12-19T05:48:57.844Z,-2.90
2022-12-19T05:49:37.779Z,-2.78
2022-12-19T05:50:17.978Z,-2.76
2022-12-19T05:50:57.794Z,-2.79
2022-12-19T05:51:38.111Z,-2.95
2022-12-19T05:52:17.753Z,-2.91
2022-12-19T05:52:58.822Z,-2.88
2022-12-19T05:53:41.784Z,-3.04
2022-12-19T05:54:21.846Z,-3.07
2022-12-19T05:55:01.759Z,-3.05
2022-12-19T05:55:41.807Z,-3.18
2022-12-19T05:56:25.785Z,-3.22
2022-12-19T05:57:05.802Z,-3.12
2022-12-19T05:57:45.748Z,-3.08
2022-12-19T05:58:25.893Z,-3.09
2022-12-19T05:59:05.747Z,-3.14
2022-12-19T05:59:45.841Z,-3.16
2022-12-19T06:00:27.782Z,-3.01
2022-12-19T06:01:12.794Z,-2.92
2022-12-19T06:01:52.835Z,-3.00
2022-12-19T06:02:33.464Z,-3.06
2022-12-19T06:03:14.815Z,-3.08
2022-12-19T06:03:55.882Z,-3.10
2022-12-19T06:04:36.742Z,-2.95
2022-12-19T06:05:17.117Z,-3.03
2022-12-19T06:05:56.766Z,-2.98
2022-12-19T06:06:37.440Z,-2.92
2022-12-19T06:07:20.849Z,-2.91
2022-12-19T06:08:01.794Z,-2.90
2022-12-19T06:08:42.748Z,-2.95
2022-12-19T06:09:23.770Z,-2.99
2022-12-19T06:10:04.735Z,-2.94
2022-12-19T06:10:44.766Z,-2.86
2022-12-19T06:11:24.735Z,-2.86
2022-12-19T06:12:04.757Z,-2.82
2022-12-19T06:12:44.761Z,-2.87
2022-12-19T06:13:25.186Z,-2.98
2022-12-19T06:14:06.740Z,-3.11
2022-12-19T06:14:46.827Z,-2.97
2022-12-19T06:15:26.730Z,-2.86
2022-12-19T06:16:22.943Z,-2.83
2022-12-19T06:17:02.729Z,-2.83
2022-12-19T06:17:43.019Z,-2.73
2022-12-19T06:18:23.738Z,-2.71
2022-12-19T06:19:03.835Z,-2.67
2022-12-19T06:19:43.749Z,-2.61
2022-12-19T06:20:23.876Z,-2.59
2022-12-19T06:21:12.732Z,-2.58
2022-12-19T06:21:52.819Z,-2.64
2022-12-19T06:22:34.737Z,-2.58
2022-12-19T06:23:14.803Z,-2.56
2022-12-19T06:23:55.726Z,-2.57
2022-12-19T06:24:35.765Z,-2.53
2022-12-19T06:25:16.714Z,-2.48
2022-12-19T06:25:57.212Z,-2.50
2022-12-19T06:26:37.733Z,-2.51
2022-12-19T06:27:17.809Z,-2.53
2022-12-19T06:27:57.743Z,-2.39
2022-12-19T06:28:38.772Z,-2.46
2022-12-19T06:29:19.785Z,-2.45
2022-12-19T06:29:59.802Z,-2.42
2022-12-19T06:30:39.715Z,-2.44
2022-12-19T06:31:19.806Z,-2.50
2022-12-19T06:32:00.782Z,-2.50
2022-12-19T06:32:41.104Z,-2.45
2022-12-19T06:33:20.710Z,-2.48
2022-12-19T06:34:02.365Z,-2.47
2022-12-19T06:35:42.803Z,-2.36
2022-12-19T06:36:34.719Z,-2.43
2022-12-19T06:37:14.761Z,-2.32
2022-12-19T06:38:00.812Z,-2.35
2022-12-19T06:38:41.835Z,-2.30
2022-12-19T06:39:22.707Z,-2.28
2022-12-19T06:40:02.721Z,-2.29
2022-12-19T06:40:55.245Z,-2.35
2022-12-19T06:42:00.713Z,-2.21
2022-12-19T06:42:34.734Z,-2.25
2022-12-19T06:43:21.701Z,-2.28
2022-12-19T06:43:55.750Z,-2.25
2022-12-19T06:44:42.698Z,-2.26
2022-12-19T06:45:23.752Z,-2.24
2022-12-19T06:46:17.759Z,-2.36
2022-12-19T06:47:11.712Z,-2.30
2022-12-19T06:48:05.702Z,-2.46
2022-12-19T06:48:59.702Z,-2.48
2022-12-19T06:49:53.690Z,-2.55
2022-12-19T06:50:42.707Z,-2.57
2022-12-19T06:51:16.726Z,-2.75
2022-12-19T06:52:08.899Z,-2.77
2022-12-19T06:52:42.732Z,-2.75
2022-12-19T06:53:29.703Z,-2.70
2022-12-19T06:54:04.828Z,-2.70
2022-12-19T06:54:51.692Z,-2.75
2022-12-19T06:55:25.735Z,-2.75
2022-12-19T06:56:06.710Z,-2.88
2022-12-19T06:56:49.790Z,-2.77
2022-12-19T06:57:29.670Z,-2.78
2022-12-19T06:58:11.018Z,-2.74
2022-12-19T06:58:51.700Z,-2.85
2022-12-19T06:59:31.923Z,-2.81
2022-12-19T07:00:12.694Z,-2.95
2022-12-19T07:00:52.779Z,-2.84
2022-12-19T07:02:06.789Z,-2.80
2022-12-19T07:02:50.777Z,-2.87
2022-12-19T07:03:37.670Z,-2.73
2022-12-19T07:04:20.730Z,-2.79
2022-12-19T07:05:10.699Z,-2.81
2022-12-19T07:05:50.745Z,-2.76
2022-12-19T07:06:30.686Z,-2.63
2022-12-19T07:07:18.703Z,-2.70
2022-12-19T07:08:12.681Z,-2.70
2022-12-19T07:09:06.682Z,-2.71
2022-12-19T07:10:00.673Z,-2.70
2022-12-19T07:10:54.740Z,-2.69
2022-12-19T07:11:48.690Z,-2.68
2022-12-19T07:12:35.692Z,-2.58
2022-12-19T07:13:09.743Z,-2.66
2022-12-19T07:13:56.697Z,-2.78
2022-12-19T07:14:30.750Z,-2.62
2022-12-19T07:15:18.654Z,-2.62
2022-12-19T07:15:52.699Z,-2.57
2022-12-19T07:16:39.813Z,-2.66
2022-12-19T07:17:13.690Z,-2.58
2022-12-19T07:18:00.696Z,-2.60
2022-12-19T07:18:36.877Z,-2.67
2022-12-19T07:19:23.674Z,-2.62
2022-12-19T07:19:58.894Z,-2.72
2022-12-19T07:20:46.660Z,-2.73
2022-12-19T07:21:20.696Z,-2.63
2022-12-19T07:22:09.638Z,-2.71
2022-12-19T07:22:50.734Z,-2.68
2022-12-19T07:23:30.681Z,-2.76
2022-12-19T07:24:11.755Z,-2.71
2022-12-19T07:24:51.645Z,-2.69
2022-12-19T07:25:32.693Z,-2.72
2022-12-19T07:26:12.649Z,-2.51
2022-12-19T07:26:52.700Z,-2.56
2022-12-19T07:27:36.056Z,-2.52
2022-12-19T07:28:16.676Z,-2.46
2022-12-19T07:28:56.675Z,-2.48
2022-12-19T07:29:36.708Z,-2.38
2022-12-19T07:30:18.634Z,-2.42
2022-12-19T07:30:58.717Z,-2.31
2022-12-19T07:31:38.746Z,-2.29
2022-12-19T07:32:18.681Z,-2.41
2022-12-19T07:32:58.665Z,-2.28
2022-12-19T07:33:38.693Z,-2.31
2022-12-19T07:34:18.713Z,-2.25
2022-12-19T07:35:00.701Z,-2.24
2022-12-19T07:35:40.646Z,-2.25
2022-12-19T07:36:20.878Z,-2.23
2022-12-19T07:37:00.715Z,-2.11
2022-12-19T07:37:40.698Z,-2.26
2022-12-19T07:38:20.645Z,-2.15
2022-12-19T07:39:00.742Z,-2.15
2022-12-19T07:39:41.651Z,-2.10
2022-12-19T07:40:22.767Z,-2.08
2022-12-19T07:41:02.644Z,-2.13
2022-12-19T07:41:43.660Z,-2.08
2022-12-19T07:42:26.026Z,-2.19
2022-12-19T07:43:09.751Z,-2.14
2022-12-19T07:43:51.641Z,-2.20
2022-12-19T07:44:31.729Z,-2.15
2022-12-19T07:45:12.679Z,-2.10
2022-12-19T07:45:52.736Z,-2.25
2022-12-19T07:46:36.680Z,-2.05
2022-12-19T07:47:16.705Z,-2.05
2022-12-19T07:47:56.623Z,-2.07
2022-12-19T07:48:37.666Z,-1.99
2022-12-19T07:49:22.464Z,-2.00
2022-12-19T07:50:02.659Z,-2.02
2022-12-19T07:50:42.664Z,-2.17
2022-12-19T07:51:22.682Z,-2.19
2022-12-19T07:52:02.628Z,-2.02
2022-12-19T07:52:42.873Z,-2.07
2022-12-19T07:53:23.641Z,-2.02
2022-12-19T07:54:03.684Z,-1.98
2022-12-19T07:54:43.594Z,-1.99
2022-12-19T07:55:23.683Z,-2.01
2022-12-19T07:56:04.642Z,-2.05
2022-12-19T07:56:46.268Z,-2.05
2022-12-19T07:57:26.617Z,-2.02
2022-12-19T07:58:10.295Z,-1.99
2022-12-19T07:58:51.652Z,-2.00
2022-12-19T07:59:37.330Z,-1.92
2022-12-19T08:00:20.593Z,-1.98
2022-12-19T08:01:12.661Z,-1.96
2022-12-19T08:01:46.443Z,-1.96
2022-12-19T08:02:34.687Z,-1.91
2022-12-19T08:03:08.363Z,-2.09
2022-12-19T08:03:55.603Z,-2.04
2022-12-19T08:04:29.313Z,-2.04
2022-12-19T08:05:17.616Z,-1.94
2022-12-19T08:05:51.291Z,-1.98
2022-12-19T08:06:36.335Z,-2.02
2022-12-19T08:07:13.649Z,-1.94
2022-12-19T08:07:47.290Z,-1.94
2022-12-19T08:08:27.581Z,-1.99
2022-12-19T08:09:01.619Z,-1.91
2022-12-19T08:09:35.307Z,-1.87
2022-12-19T08:10:17.606Z,-1.91
2022-12-19T08:10:51.683Z,-1.88
2022-12-19T08:11:27.476Z,-1.89
2022-12-19T08:12:07.741Z,-1.88
2022-12-19T08:12:41.762Z,-1.79
2022-12-19T08:13:15.293Z,-1.77
2022-12-19T08:13:56.576Z,-1.82
2022-12-19T08:14:30.629Z,-1.69
2022-12-19T08:15:05.766Z,-1.69
2022-12-19T08:15:46.590Z,-1.71
2022-12-19T08:16:21.716Z,-1.74
2022-12-19T08:17:19.645Z,-1.82
2022-12-19T08:17:55.707Z,-1.81
2022-12-19T08:18:29.724Z,-1.82
2022-12-19T08:19:03.717Z,-1.82
2022-12-19T08:19:43.581Z,-1.72
2022-12-19T08:20:17.621Z,-1.68
2022-12-19T08:20:51.239Z,-1.67
2022-12-19T08:21:31.582Z,-1.68
2022-12-19T08:22:05.614Z,-1.59
2022-12-19T08:22:39.316Z,-1.63
2022-12-19T08:23:20.624Z,-1.58
2022-12-19T08:23:54.664Z,-1.55
2022-12-19T08:24:30.809Z,-1.56
2022-12-19T08:25:12.588Z,-1.60
2022-12-19T08:25:46.614Z,-1.52
2022-12-19T08:26:25.030Z,-1.46
2022-12-19T08:27:05.576Z,-1.47
2022-12-19T08:27:39.741Z,-1.43
2022-12-19T08:28:13.297Z,-1.46
2022-12-19T08:28:54.589Z,-1.38
2022-12-19T08:29:28.627Z,-1.45
2022-12-19T08:30:02.675Z,-1.40
2022-12-19T08:30:48.599Z,-1.35
2022-12-19T08:31:25.027Z,-1.40
2022-12-19T08:31:59.261Z,-1.33
2022-12-19T08:32:39.568Z,-1.34
2022-12-19T08:33:13.616Z,-1.25
2022-12-19T08:33:47.761Z,-1.30
2022-12-19T08:34:27.614Z,-1.29
2022-12-19T08:35:01.653Z,-1.28
2022-12-19T08:35:37.157Z,-1.27
2022-12-19T08:36:20.576Z,-1.27
2022-12-19T08:36:54.621Z,-1.25
2022-12-19T08:37:28.233Z,-1.37
2022-12-19T08:38:08.549Z,-1.23
2022-12-19T08:38:42.662Z,-1.14
2022-12-19T08:39:16.376Z,-1.15
2022-12-19T08:39:56.570Z,-1.09
2022-12-19T08:40:30.622Z,-1.04
2022-12-19T08:41:04.458Z,-0.92
2022-12-19T08:41:45.578Z,-0.95
2022-12-19T08:42:19.635Z,-0.98
2022-12-19T08:42:53.255Z,-0.91
2022-12-19T08:43:34.579Z,-1.02
2022-12-19T08:44:08.609Z,-0.90
2022-12-19T08:44:55.557Z,-0.92
2022-12-19T08:45:36.585Z,-0.85
2022-12-19T08:46:31.579Z,-0.80
2022-12-19T08:47:25.550Z,-0.79
2022-12-19T08:48:19.533Z,-0.77
2022-12-19T08:49:13.573Z,-0.78
2022-12-19T08:50:07.599Z,-0.62
2022-12-19T08:51:06.557Z,-0.59
2022-12-19T08:52:00.666Z,-0.58
2022-12-19T08:52:54.584Z,-0.58
2022-12-19T08:53:51.538Z,-0.49
2022-12-19T08:54:45.541Z,-0.47
2022-12-19T08:55:42.585Z,-0.41
2022-12-19T08:56:20.595Z,-0.43
2022-12-19T08:57:07.546Z,-0.38
2022-12-19T08:57:41.570Z,-0.44
2022-12-19T08:58:30.572Z,-0.46
2022-12-19T08:59:04.767Z,-0.40
2022-12-19T08:59:45.218Z,-0.27
2022-12-19T09:00:27.533Z,-0.19
2022-12-19T09:03:15.704Z,-0.09
2022-12-19T09:05:01.166Z,-0.06
2022-12-19T09:06:03.750Z,-0.22
2022-12-19T09:06:05.259Z,-0.20
2022-12-19T09:06:39.635Z,-0.14
2022-12-19T09:07:15.170Z,-0.04
2022-12-19T09:07:55.520Z,0.00
2022-12-19T09:08:36.562Z,-0.11
2022-12-19T09:09:10.294Z,0.07
2022-12-19T09:10:00.881Z,0.07
2022-12-19T09:10:37.775Z,0.08
2022-12-19T09:11:28.565Z,0.08
2022-12-19T09:12:02.219Z,0.08
2022-12-19T09:12:55.782Z,0.11
2022-12-19T09:13:33.121Z,0.18
2022-12-19T09:14:13.549Z,0.28
2022-12-19T09:14:49.576Z,0.28
2022-12-19T09:15:23.425Z,0.29
2022-12-19T09:16:09.535Z,0.23
2022-12-19T09:16:43.621Z,0.20
2022-12-19T09:17:17.521Z,0.30
2022-12-19T09:17:58.520Z,0.28
2022-12-19T09:18:32.589Z,0.25
2022-12-19T09:19:06.173Z,0.31
2022-12-19T09:19:47.831Z,0.30
2022-12-19T09:20:23.691Z,0.23
2022-12-19T09:20:59.945Z,0.31
2022-12-19T09:21:42.545Z,0.30
2022-12-19T09:22:16.787Z,0.36
2022-12-19T09:22:51.461Z,0.38
2022-12-19T09:23:35.544Z,0.38
2022-12-19T09:24:10.057Z,0.36
2022-12-19T09:24:44.453Z,0.39
2022-12-19T09:25:24.530Z,0.36
2022-12-19T09:25:58.570Z,0.35
2022-12-19T09:26:33.699Z,0.17
2022-12-19T09:27:14.750Z,0.36
2022-12-19T09:28:26.025Z,0.38
2022-12-19T09:28:42.519Z,0.37
2022-12-19T09:29:33.602Z,0.39
2022-12-19T09:30:16.602Z,0.34
2022-12-19T09:31:07.575Z,0.43
2022-12-19T09:31:51.225Z,0.37
2022-12-19T09:32:36.491Z,0.28
2022-12-19T09:33:17.554Z,0.33
2022-12-19T09:33:58.478Z,0.38
2022-12-19T09:34:39.129Z,0.50
2022-12-19T09:35:19.514Z,0.44
2022-12-19T09:36:01.597Z,0.47
2022-12-19T09:36:42.561Z,0.48
2022-12-19T09:37:22.528Z,0.59
2022-12-19T09:38:02.497Z,0.62
2022-12-19T09:38:42.536Z,0.55
2022-12-19T09:39:23.501Z,0.60